PWSweather.com
Personal Weather Stations
Station Observations
LW1DRJ
MorenoAR 17441

MorenoAR 17441

Lat: -34.6340099, Lon: -58.791382

Elevation: 19

Station Type: Fine Offset

http://www.lw1drj.com.ar/clima

Latest ConditionsUpdated 10:00:00 PM GMT-03:57 Monday, Mar 25, 2019
Currently Today's Max Today's Min Today's Average
Temperature 61.5°F16.4°C 73.2°F22.9°C 48.9°F9.4°C 57.9°F14.4°C
Dew Point 54.2°F12.3°C 54.2°F12.3°C 46.1°F7.8°C 49.7°F9.8°C
Winds 2.2 mph SW3.5 kmh SW 7.6 mph -12.2 kmh - - 3.4 mph 5.5 kmh
Wind Gusts 5.4 mph8.7 kmh 18.3 mph29.5 kmh - -
Humidity 77% 99% 39% 77%
Pressure 30.21 in1023.0 mb 30.22 in1023.4 mb 30.10 in1019.3 mb -
Hour Temp Dew Point Humidity Winds Wind Gusts Pressure Precip Precip Rate Daily Precip Total
10:00 PM 61.5°F16.4°C 54.2°F12.3°C 77% 2.2 mph SW3.5 kmh SW 5.4 mph8.7 kmh 30.21 in1023.0 mb 0.00 in0.0 mm 0.00 in0.0 mm 0.00 in0.0 mm
09:40 PM 61.5°F16.4°C 53.5°F11.9°C 75% 1.6 mph SW2.6 kmh SW 3.8 mph6.1 kmh 30.22 in1023.4 mb 0.00 in0.0 mm 0.00 in0.0 mm 0.00 in0.0 mm
09:20 PM 62.2°F16.8°C 54.2°F12.3°C 75% 0.7 mph SSW1.1 kmh SSW 5.4 mph8.7 kmh 30.21 in1023.0 mb 0.00 in0.0 mm 0.00 in0.0 mm 0.00 in0.0 mm
09:00 PM 61.5°F16.4°C 53.5°F11.9°C 75% 2.2 mph SW3.5 kmh SW 4.5 mph7.2 kmh 30.20 in1022.7 mb 0.00 in0.0 mm 0.00 in0.0 mm 0.00 in0.0 mm
08:40 PM 61.3°F16.3°C 53.0°F11.7°C 74% 2.2 mph SW3.5 kmh SW 5.4 mph8.7 kmh 30.18 in1022.0 mb 0.00 in0.0 mm 0.00 in0.0 mm 0.00 in0.0 mm
08:20 PM 61.5°F16.4°C 52.4°F11.3°C 72% 3.1 mph SSW5.0 kmh SSW 5.4 mph8.7 kmh 30.17 in1021.7 mb 0.00 in0.0 mm 0.00 in0.0 mm 0.00 in0.0 mm
08:00 PM 61.7°F16.5°C 51.0°F10.6°C 68% 0.7 mph S1.1 kmh S 7.6 mph12.2 kmh 30.16 in1021.3 mb 0.00 in0.0 mm 0.00 in0.0 mm 0.00 in0.0 mm
07:40 PM 63.5°F17.5°C 51.9°F11.1°C 66% 1.6 mph SSW2.6 kmh SSW 6.9 mph11.1 kmh 30.15 in1021.0 mb 0.00 in0.0 mm 0.00 in0.0 mm 0.00 in0.0 mm
07:20 PM 64.0°F17.8°C 51.2°F10.7°C 63% 0.7 mph S1.1 kmh S 5.4 mph8.7 kmh 30.14 in1020.7 mb 0.00 in0.0 mm 0.00 in0.0 mm 0.00 in0.0 mm
07:00 PM 65.3°F18.5°C 50.6°F10.3°C 59% 0.7 mph SW1.1 kmh SW 4.5 mph7.2 kmh 30.14 in1020.7 mb 0.00 in0.0 mm 0.00 in0.0 mm 0.00 in0.0 mm
06:40 PM 66.4°F19.1°C 50.2°F10.1°C 56% 1.6 mph SSW2.6 kmh SSW 8.3 mph13.4 kmh 30.13 in1020.3 mb 0.00 in0.0 mm 0.00 in0.0 mm 0.00 in0.0 mm
06:20 PM 69.6°F20.9°C 48.5°F9.2°C 47% 3.1 mph SSW5.0 kmh SSW 9.2 mph14.8 kmh 30.12 in1020.0 mb 0.00 in0.0 mm 0.00 in0.0 mm 0.00 in0.0 mm
06:00 PM 70.9°F21.6°C 46.6°F8.1°C 42% 1.6 mph S2.6 kmh S 9.8 mph15.8 kmh 30.11 in1019.6 mb 0.00 in0.0 mm 0.00 in0.0 mm 0.00 in0.0 mm
05:40 PM 71.4°F21.9°C 47.1°F8.4°C 42% 3.1 mph SE5.0 kmh SE 12.1 mph19.5 kmh 30.12 in1020.0 mb 0.00 in0.0 mm 0.00 in0.0 mm 0.00 in0.0 mm
05:20 PM 73.2°F22.9°C 46.8°F8.2°C 39% 6.0 mph SW9.7 kmh SW 8.3 mph13.4 kmh 30.12 in1020.0 mb 0.00 in0.0 mm 0.00 in0.0 mm 0.00 in0.0 mm
05:00 PM 72.5°F22.5°C 46.1°F7.8°C 39% 3.1 mph SE5.0 kmh SE 11.4 mph18.3 kmh 30.13 in1020.3 mb 0.00 in0.0 mm 0.00 in0.0 mm 0.00 in0.0 mm
04:40 PM 71.1°F21.7°C 48.6°F9.2°C 45% 2.2 mph SSE3.5 kmh SSE 7.6 mph12.2 kmh 30.12 in1020.0 mb 0.00 in0.0 mm 0.00 in0.0 mm 0.00 in0.0 mm
04:20 PM 69.6°F20.9°C 47.3°F8.5°C 45% 5.4 mph SW8.7 kmh SW 13.6 mph21.9 kmh 30.13 in1020.3 mb 0.00 in0.0 mm 0.00 in0.0 mm 0.00 in0.0 mm
04:00 PM 69.3°F20.7°C 47.6°F8.7°C 46% 2.2 mph SW3.5 kmh SW 12.1 mph19.5 kmh 30.13 in1020.3 mb 0.00 in0.0 mm 0.00 in0.0 mm 0.00 in0.0 mm
03:40 PM 70.9°F21.6°C 47.9°F8.8°C 44% 3.1 mph S5.0 kmh S 11.4 mph18.3 kmh 30.14 in1020.7 mb 0.00 in0.0 mm 0.00 in0.0 mm 0.00 in0.0 mm
03:20 PM 70.0°F21.1°C 46.4°F8.0°C 43% 1.6 mph S2.6 kmh S 12.1 mph19.5 kmh 30.13 in1020.3 mb 0.00 in0.0 mm 0.00 in0.0 mm 0.00 in0.0 mm
02:20 PM 69.1°F20.6°C 47.4°F8.6°C 46% 5.4 mph SSW8.7 kmh SSW 14.5 mph23.3 kmh 30.15 in1021.0 mb 0.00 in0.0 mm 0.00 in0.0 mm 0.00 in0.0 mm
02:00 PM 70.3°F21.3°C 48.0°F8.9°C 45% 6.0 mph SW9.7 kmh SW 16.8 mph27.0 kmh 30.16 in1021.3 mb 0.00 in0.0 mm 0.00 in0.0 mm 0.00 in0.0 mm
01:40 PM 69.4°F20.8°C 48.9°F9.4°C 48% 2.2 mph SSW3.5 kmh SSW 13.0 mph20.9 kmh 30.16 in1021.3 mb 0.00 in0.0 mm 0.00 in0.0 mm 0.00 in0.0 mm
01:20 PM 68.7°F20.4°C 48.8°F9.3°C 49% 3.1 mph WSW5.0 kmh WSW 13.6 mph21.9 kmh 30.17 in1021.7 mb 0.00 in0.0 mm 0.00 in0.0 mm 0.00 in0.0 mm
01:00 PM 68.5°F20.3°C 48.1°F8.9°C 48% 7.6 mph SW12.2 kmh SW 12.1 mph19.5 kmh 30.18 in1022.0 mb 0.00 in0.0 mm 0.00 in0.0 mm 0.00 in0.0 mm
12:40 PM 68.4°F20.2°C 49.0°F9.4°C 50% 7.6 mph SW12.2 kmh SW 15.2 mph24.5 kmh 30.18 in1022.0 mb 0.00 in0.0 mm 0.00 in0.0 mm 0.00 in0.0 mm
12:20 PM 67.1°F19.5°C 49.4°F9.7°C 53% 1.6 mph SW2.6 kmh SW 9.8 mph15.8 kmh 30.19 in1022.4 mb 0.00 in0.0 mm 0.00 in0.0 mm 0.00 in0.0 mm
12:00 PM 65.3°F18.5°C 49.2°F9.6°C 56% 4.5 mph SW7.2 kmh SW 11.4 mph18.3 kmh 30.19 in1022.4 mb 0.00 in0.0 mm 0.00 in0.0 mm 0.00 in0.0 mm
11:40 AM 64.0°F17.8°C 47.5°F8.6°C 55% 7.6 mph SSW12.2 kmh SSW 16.8 mph27.0 kmh 30.20 in1022.7 mb 0.00 in0.0 mm 0.00 in0.0 mm 0.00 in0.0 mm
11:20 AM 65.1°F18.4°C 49.0°F9.4°C 56% 3.1 mph S5.0 kmh S 9.2 mph14.8 kmh 30.20 in1022.7 mb 0.00 in0.0 mm 0.00 in0.0 mm 0.00 in0.0 mm
11:00 AM 63.1°F17.3°C 49.0°F9.4°C 60% 6.0 mph SW9.7 kmh SW 13.6 mph21.9 kmh 30.21 in1023.0 mb 0.00 in0.0 mm 0.00 in0.0 mm 0.00 in0.0 mm
10:40 AM 63.0°F17.2°C 48.9°F9.4°C 60% 6.0 mph SW9.7 kmh SW 18.3 mph29.5 kmh 30.21 in1023.0 mb 0.00 in0.0 mm 0.00 in0.0 mm 0.00 in0.0 mm
10:20 AM 61.3°F16.3°C 49.9°F9.9°C 66% 2.2 mph WSW3.5 kmh WSW 15.2 mph24.5 kmh 30.20 in1022.7 mb 0.00 in0.0 mm 0.00 in0.0 mm 0.00 in0.0 mm
10:00 AM 60.8°F16.0°C 49.8°F9.9°C 67% 1.6 mph SW2.6 kmh SW 14.5 mph23.3 kmh 30.20 in1022.7 mb 0.00 in0.0 mm 0.00 in0.0 mm 0.00 in0.0 mm
09:40 AM 60.3°F15.7°C 50.4°F10.2°C 70% 4.5 mph SSE7.2 kmh SSE 9.2 mph14.8 kmh 30.20 in1022.7 mb 0.00 in0.0 mm 0.00 in0.0 mm 0.00 in0.0 mm
09:20 AM 58.5°F14.7°C 50.9°F10.5°C 76% 6.9 mph SW11.1 kmh SW 12.1 mph19.5 kmh 30.20 in1022.7 mb 0.00 in0.0 mm 0.00 in0.0 mm 0.00 in0.0 mm
09:00 AM 57.0°F13.9°C 50.9°F10.5°C 80% 6.9 mph SW11.1 kmh SW 11.4 mph18.3 kmh 30.19 in1022.4 mb 0.00 in0.0 mm 0.00 in0.0 mm 0.00 in0.0 mm
08:40 AM 55.6°F13.1°C 52.7°F11.5°C 90% 2.2 mph SW3.5 kmh SW 10.7 mph17.2 kmh 30.18 in1022.0 mb 0.00 in0.0 mm 0.00 in0.0 mm 0.00 in0.0 mm
08:20 AM 53.8°F12.1°C 52.7°F11.5°C 96% 2.2 mph WSW3.5 kmh WSW 6.9 mph11.1 kmh 30.19 in1022.4 mb 0.00 in0.0 mm 0.00 in0.0 mm 0.00 in0.0 mm
07:58 AM 51.6°F10.9°C 51.3°F10.7°C 99% 6.0 mph SW9.7 kmh SW 8.3 mph13.4 kmh 30.18 in1022.0 mb 0.00 in0.0 mm 0.00 in0.0 mm 0.00 in0.0 mm
07:48 AM 51.1°F10.6°C 50.8°F10.4°C 99% 3.1 mph SW5.0 kmh SW 9.8 mph15.8 kmh 30.18 in1022.0 mb 0.00 in0.0 mm 0.00 in0.0 mm 0.00 in0.0 mm
07:38 AM 50.5°F10.3°C 50.3°F10.2°C 99% 6.0 mph W9.7 kmh W 9.8 mph15.8 kmh 30.17 in1021.7 mb 0.00 in0.0 mm 0.00 in0.0 mm 0.00 in0.0 mm
07:28 AM 49.1°F9.5°C 48.8°F9.3°C 99% 2.2 mph SW3.5 kmh SW 5.4 mph8.7 kmh 30.17 in1021.7 mb 0.00 in0.0 mm 0.00 in0.0 mm 0.00 in0.0 mm
07:18 AM 49.3°F9.6°C 49.0°F9.4°C 99% 0.7 mph SW1.1 kmh SW 3.8 mph6.1 kmh 30.16 in1021.3 mb 0.00 in0.0 mm 0.00 in0.0 mm 0.00 in0.0 mm
07:08 AM 48.9°F9.4°C 48.7°F9.3°C 99% 1.6 mph SW2.6 kmh SW 6.9 mph11.1 kmh 30.16 in1021.3 mb 0.00 in0.0 mm 0.00 in0.0 mm 0.00 in0.0 mm
06:58 AM 49.3°F9.6°C 49.0°F9.4°C 99% 4.5 mph SW7.2 kmh SW 6.9 mph11.1 kmh 30.16 in1021.3 mb 0.00 in0.0 mm 0.00 in0.0 mm 0.00 in0.0 mm
06:48 AM 48.9°F9.4°C 48.7°F9.3°C 99% 0.7 mph W1.1 kmh W 5.4 mph8.7 kmh 30.16 in1021.3 mb 0.00 in0.0 mm 0.00 in0.0 mm 0.00 in0.0 mm
06:38 AM 49.1°F9.5°C 48.8°F9.3°C 99% 2.2 mph SW3.5 kmh SW 6.0 mph9.7 kmh 30.15 in1021.0 mb 0.00 in0.0 mm 0.00 in0.0 mm 0.00 in0.0 mm
06:28 AM 49.5°F9.7°C 49.2°F9.6°C 99% 4.5 mph SW7.2 kmh SW 6.0 mph9.7 kmh 30.14 in1020.7 mb 0.00 in0.0 mm 0.00 in0.0 mm 0.00 in0.0 mm
06:18 AM 49.8°F9.9°C 49.6°F9.8°C 99% 2.2 mph SW3.5 kmh SW 9.2 mph14.8 kmh 30.14 in1020.7 mb 0.00 in0.0 mm 0.00 in0.0 mm 0.00 in0.0 mm
06:08 AM 49.6°F9.8°C 49.4°F9.7°C 99% 6.0 mph SW9.7 kmh SW 9.2 mph14.8 kmh 30.14 in1020.7 mb 0.00 in0.0 mm 0.00 in0.0 mm 0.00 in0.0 mm
05:58 AM 50.4°F10.2°C 50.1°F10.1°C 99% 3.1 mph SW5.0 kmh SW 6.0 mph9.7 kmh 30.14 in1020.7 mb 0.00 in0.0 mm 0.00 in0.0 mm 0.00 in0.0 mm
05:48 AM 50.0°F10.0°C 49.7°F9.8°C 99% 1.6 mph SW2.6 kmh SW 5.4 mph8.7 kmh 30.14 in1020.7 mb 0.00 in0.0 mm 0.00 in0.0 mm 0.00 in0.0 mm
05:38 AM 50.2°F10.1°C 49.9°F9.9°C 99% 3.8 mph SW6.1 kmh SW 6.0 mph9.7 kmh 30.13 in1020.3 mb 0.00 in0.0 mm 0.00 in0.0 mm 0.00 in0.0 mm
05:28 AM 50.5°F10.3°C 50.3°F10.2°C 99% 3.1 mph SW5.0 kmh SW 6.0 mph9.7 kmh 30.13 in1020.3 mb 0.00 in0.0 mm 0.00 in0.0 mm 0.00 in0.0 mm
05:18 AM 49.8°F9.9°C 49.6°F9.8°C 99% 3.1 mph S5.0 kmh S 5.4 mph8.7 kmh 30.12 in1020.0 mb 0.00 in0.0 mm 0.00 in0.0 mm 0.00 in0.0 mm
05:08 AM 50.4°F10.2°C 50.1°F10.1°C 99% 1.6 mph SW2.6 kmh SW 7.6 mph12.2 kmh 30.12 in1020.0 mb 0.00 in0.0 mm 0.00 in0.0 mm 0.00 in0.0 mm
04:58 AM 50.5°F10.3°C 50.3°F10.2°C 99% 3.8 mph W6.1 kmh W 7.6 mph12.2 kmh 30.12 in1020.0 mb 0.00 in0.0 mm 0.00 in0.0 mm 0.00 in0.0 mm
04:48 AM 50.5°F10.3°C 50.3°F10.2°C 99% 1.6 mph W2.6 kmh W 4.5 mph7.2 kmh 30.11 in1019.6 mb 0.00 in0.0 mm 0.00 in0.0 mm 0.00 in0.0 mm
04:38 AM 50.5°F10.3°C 50.3°F10.2°C 99% 2.2 mph NW3.5 kmh NW 6.0 mph9.7 kmh 30.11 in1019.6 mb 0.00 in0.0 mm 0.00 in0.0 mm 0.00 in0.0 mm
04:28 AM 50.9°F10.5°C 50.6°F10.3°C 99% 3.8 mph SW6.1 kmh SW 6.0 mph9.7 kmh 30.11 in1019.6 mb 0.00 in0.0 mm 0.00 in0.0 mm 0.00 in0.0 mm
04:18 AM 50.4°F10.2°C 50.1°F10.1°C 99% 3.8 mph SW6.1 kmh SW 5.4 mph8.7 kmh 30.11 in1019.6 mb 0.00 in0.0 mm 0.00 in0.0 mm 0.00 in0.0 mm
04:08 AM 50.9°F10.5°C 50.4°F10.2°C 98% 2.2 mph S3.5 kmh S 5.4 mph8.7 kmh 30.11 in1019.6 mb 0.00 in0.0 mm 0.00 in0.0 mm 0.00 in0.0 mm
03:58 AM 51.3°F10.7°C 50.4°F10.2°C 97% 3.8 mph SW6.1 kmh SW 6.9 mph11.1 kmh 30.10 in1019.3 mb 0.00 in0.0 mm 0.00 in0.0 mm 0.00 in0.0 mm
03:48 AM 51.3°F10.7°C 50.2°F10.1°C 96% 4.5 mph S7.2 kmh S 6.9 mph11.1 kmh 30.10 in1019.3 mb 0.00 in0.0 mm 0.00 in0.0 mm 0.00 in0.0 mm
03:38 AM 50.9°F10.5°C 49.5°F9.7°C 95% 3.8 mph SW6.1 kmh SW 6.9 mph11.1 kmh 30.10 in1019.3 mb 0.00 in0.0 mm 0.00 in0.0 mm 0.00 in0.0 mm
03:28 AM 51.8°F11.0°C 50.1°F10.1°C 94% 3.8 mph S6.1 kmh S 6.9 mph11.1 kmh 30.10 in1019.3 mb 0.00 in0.0 mm 0.00 in0.0 mm 0.00 in0.0 mm
03:18 AM 52.2°F11.2°C 50.2°F10.1°C 93% 2.2 mph SW3.5 kmh SW 8.3 mph13.4 kmh 30.11 in1019.6 mb 0.00 in0.0 mm 0.00 in0.0 mm 0.00 in0.0 mm
03:08 AM 52.2°F11.2°C 49.9°F9.9°C 92% 3.1 mph SW5.0 kmh SW 8.3 mph13.4 kmh 30.10 in1019.3 mb 0.00 in0.0 mm 0.00 in0.0 mm 0.00 in0.0 mm
02:58 AM 52.3°F11.3°C 49.8°F9.9°C 91% 4.5 mph SW7.2 kmh SW 8.3 mph13.4 kmh 30.11 in1019.6 mb 0.00 in0.0 mm 0.00 in0.0 mm 0.00 in0.0 mm
02:48 AM 52.5°F11.4°C 49.7°F9.8°C 90% 1.6 mph NW2.6 kmh NW 7.6 mph12.2 kmh 30.11 in1019.6 mb 0.00 in0.0 mm 0.00 in0.0 mm 0.00 in0.0 mm
02:38 AM 52.9°F11.6°C 50.0°F10.0°C 90% 3.1 mph S5.0 kmh S 7.6 mph12.2 kmh 30.11 in1019.6 mb 0.00 in0.0 mm 0.00 in0.0 mm 0.00 in0.0 mm
02:28 AM 53.1°F11.7°C 49.9°F9.9°C 89% 3.1 mph SW5.0 kmh SW 6.0 mph9.7 kmh 30.11 in1019.6 mb 0.00 in0.0 mm 0.00 in0.0 mm 0.00 in0.0 mm
02:18 AM 53.1°F11.7°C 49.6°F9.8°C 88% 3.8 mph WSW6.1 kmh WSW 6.0 mph9.7 kmh 30.11 in1019.6 mb 0.00 in0.0 mm 0.00 in0.0 mm 0.00 in0.0 mm
02:08 AM 53.8°F12.1°C 50.0°F10.0°C 87% 3.1 mph SW5.0 kmh SW 6.0 mph9.7 kmh 30.11 in1019.6 mb 0.00 in0.0 mm 0.00 in0.0 mm 0.00 in0.0 mm
01:58 AM 54.0°F12.2°C 50.2°F10.1°C 87% 3.1 mph S5.0 kmh S 6.0 mph9.7 kmh 30.10 in1019.3 mb 0.00 in0.0 mm 0.00 in0.0 mm 0.00 in0.0 mm
01:48 AM 53.4°F11.9°C 49.3°F9.6°C 86% 3.1 mph SW5.0 kmh SW 6.0 mph9.7 kmh 30.11 in1019.6 mb 0.00 in0.0 mm 0.00 in0.0 mm 0.00 in0.0 mm
01:38 AM 54.3°F12.4°C 49.9°F9.9°C 85% 3.1 mph SW5.0 kmh SW 6.9 mph11.1 kmh 30.10 in1019.3 mb 0.00 in0.0 mm 0.00 in0.0 mm 0.00 in0.0 mm
01:28 AM 54.0°F12.2°C 49.2°F9.6°C 84% 5.4 mph SW8.7 kmh SW 6.9 mph11.1 kmh 30.11 in1019.6 mb 0.00 in0.0 mm 0.00 in0.0 mm 0.00 in0.0 mm
01:18 AM 54.0°F12.2°C 48.9°F9.4°C 83% 3.8 mph S6.1 kmh S 10.7 mph17.2 kmh 30.10 in1019.3 mb 0.00 in0.0 mm 0.00 in0.0 mm 0.00 in0.0 mm
01:08 AM 54.5°F12.5°C 49.1°F9.5°C 82% 7.6 mph SW12.2 kmh SW 10.7 mph17.2 kmh 30.11 in1019.6 mb 0.00 in0.0 mm 0.00 in0.0 mm 0.00 in0.0 mm
12:58 AM 54.5°F12.5°C 48.5°F9.2°C 80% 3.8 mph SW6.1 kmh SW 8.3 mph13.4 kmh 30.10 in1019.3 mb 0.00 in0.0 mm 0.00 in0.0 mm 0.00 in0.0 mm
12:48 AM 54.9°F12.7°C 48.5°F9.2°C 79% 3.8 mph SW6.1 kmh SW 8.3 mph13.4 kmh 30.10 in1019.3 mb 0.00 in0.0 mm 0.00 in0.0 mm 0.00 in0.0 mm
12:38 AM 55.6°F13.1°C 48.8°F9.3°C 78% 3.8 mph SW6.1 kmh SW 7.6 mph12.2 kmh 30.10 in1019.3 mb 0.00 in0.0 mm 0.00 in0.0 mm 0.00 in0.0 mm
12:28 AM 55.6°F13.1°C 48.5°F9.2°C 77% 4.5 mph SW7.2 kmh SW 7.6 mph12.2 kmh 30.10 in1019.3 mb 0.00 in0.0 mm 0.00 in0.0 mm 0.00 in0.0 mm
12:18 AM 55.6°F13.1°C 48.1°F8.9°C 76% 3.1 mph SW5.0 kmh SW 9.2 mph14.8 kmh 30.10 in1019.3 mb 0.00 in0.0 mm 0.00 in0.0 mm 0.00 in0.0 mm
12:08 AM 56.5°F13.6°C 49.0°F9.4°C 76% 5.4 mph SW8.7 kmh SW 10.7 mph17.2 kmh 30.10 in1019.3 mb 0.00 in0.0 mm 0.00 in0.0 mm 0.00 in0.0 mm